Aviation Digital Data Service (ADDS)

Output produced by METARs form (2154 UTC 19 February 2018)
found at http://www.aviationweather.gov/adds/metars/
 
HLLB 192120Z 36005KT 8000 FEW020 BKN080 14/12 Q1013
TAF HLLB 191700Z 1918/2018 VRB02KT 8000 FEW025 SCT080 
     PROB40 
     TEMPO 2002/2012 5000 -RA SCT025 BKN050 
     BECMG 2012/2014 06010KT
       
TAF HLTD 191700Z 1918/2018 VRB02KT 8000 NSC
       
TAF HLGT 191700Z 1918/2018 36008KT 8000 NSC 
     BECMG 1922/1924 VRB02KT
       
TAF HLKF 191700Z 1918/2018 VRB02KT CAVOK